createdAt,value
2018-10-19T00:02:09.022Z,96283.59
2018-10-19T00:04:38.808Z,96288.06
2018-10-19T00:07:08.599Z,96287.09
2018-10-19T00:09:38.366Z,96282.78
2018-10-19T00:12:08.822Z,96278.88
2018-10-19T00:14:38.559Z,96278.88
2018-10-19T00:17:08.415Z,96282.77
2018-10-19T00:19:38.957Z,96276.95
2018-10-19T00:22:08.760Z,96274.57
2018-10-19T00:24:38.542Z,96273.05
2018-10-19T00:27:08.322Z,96273.64
2018-10-19T00:29:38.256Z,96272.47
2018-10-19T00:32:08.124Z,96272.06
2018-10-19T00:34:37.923Z,96276.17
2018-10-19T00:37:07.854Z,96272.08
2018-10-19T00:39:37.609Z,96275.53
2018-10-19T00:42:07.765Z,96274.55
2018-10-19T00:44:37.556Z,96271.97
2018-10-19T00:47:07.734Z,96271.77
2018-10-19T00:49:37.926Z,96277.43
2018-10-19T00:52:07.776Z,96277.25
2018-10-19T00:54:37.548Z,96276.25
2018-10-19T00:57:07.456Z,96285.98
2018-10-19T00:59:37.439Z,96285.80
2018-10-19T01:02:07.393Z,96282.47
2018-10-19T01:04:37.186Z,96281.30
2018-10-19T01:07:07.016Z,96278.12
2018-10-19T01:09:36.838Z,96275.20
2018-10-19T01:12:07.224Z,96267.41
2018-10-19T01:14:36.975Z,96272.67
2018-10-19T01:17:06.885Z,96273.44
2018-10-19T01:19:36.894Z,96275.23
2018-10-19T01:22:06.963Z,96277.02
2018-10-19T01:24:36.760Z,96283.03
2018-10-19T01:27:07.082Z,96281.26
2018-10-19T01:29:37.043Z,96275.83
2018-10-19T01:32:07.793Z,96274.70
2018-10-19T01:34:37.700Z,96267.26
2018-10-19T01:37:07.491Z,96267.34
2018-10-19T01:39:37.286Z,96263.98
2018-10-19T01:42:07.732Z,96267.34
2018-10-19T01:44:37.543Z,96263.57
2018-10-19T01:47:07.394Z,96263.23
2018-10-19T01:49:37.289Z,96260.34
2018-10-19T01:52:07.415Z,96260.96
2018-10-19T01:54:37.257Z,96259.58
2018-10-19T01:57:07.124Z,96257.06
2018-10-19T01:59:37.040Z,96256.83
2018-10-19T02:02:07.418Z,96256.44
2018-10-19T02:04:37.216Z,96254.27
2018-10-19T02:07:07.386Z,96258.37
2018-10-19T02:09:37.152Z,96267.13
2018-10-19T02:12:07.360Z,96266.78
2018-10-19T02:14:37.436Z,96267.13
2018-10-19T02:17:08.152Z,96258.80
2018-10-19T02:19:38.272Z,96260.90
2018-10-19T02:22:08.298Z,96254.88
2018-10-19T02:24:38.084Z,96260.50
2018-10-19T02:27:08.475Z,96262.81
2018-10-19T02:29:38.668Z,96256.58
2018-10-19T02:32:09.139Z,96257.55
2018-10-19T02:34:38.902Z,96253.92
2018-10-19T02:37:08.901Z,96254.22
2018-10-19T02:39:38.738Z,96250.50
2018-10-19T02:42:08.822Z,96254.22
2018-10-19T02:44:38.610Z,96260.82
2018-10-19T02:47:08.445Z,96266.64
2018-10-19T02:49:38.382Z,96272.34
2018-10-19T02:52:08.183Z,96275.88
2018-10-19T02:54:37.936Z,96269.18
2018-10-19T02:57:08.009Z,96277.55
2018-10-19T02:59:37.968Z,96277.70
2018-10-19T03:02:08.069Z,96275.77
2018-10-19T03:04:38.247Z,96271.54
2018-10-19T03:07:08.493Z,96276.55
2018-10-19T03:09:38.319Z,96273.56
2018-10-19T03:12:08.347Z,96281.13
2018-10-19T03:16:07.511Z,96275.23
2018-10-19T03:18:37.314Z,96269.50
2018-10-19T03:21:07.410Z,96264.06
2018-10-19T03:23:37.351Z,96272.58
2018-10-19T03:26:08.909Z,96273.95
2018-10-19T03:28:38.694Z,96281.32
2018-10-19T03:31:08.492Z,96281.31
2018-10-19T03:33:38.413Z,96283.44
2018-10-19T03:36:08.458Z,96286.72
2018-10-19T03:38:38.240Z,96288.05
2018-10-19T03:41:08.340Z,96292.17
2018-10-19T03:43:38.336Z,96291.77
2018-10-19T03:46:08.243Z,96300.95
2018-10-19T03:48:38.207Z,96304.89
2018-10-19T03:51:08.194Z,96306.08
2018-10-19T03:53:38.152Z,96301.95
2018-10-19T03:56:07.947Z,96308.06
2018-10-19T03:58:37.720Z,96308.53
2018-10-19T04:01:07.907Z,96303.23
2018-10-19T04:03:37.695Z,96305.25
2018-10-19T04:06:07.635Z,96300.38
2018-10-19T04:08:37.407Z,96300.47
2018-10-19T04:11:07.501Z,96302.67
2018-10-19T04:13:37.397Z,96296.08
2018-10-19T04:16:07.185Z,96303.06
2018-10-19T04:18:36.979Z,96296.26
2018-10-19T04:21:06.820Z,96302.98
2018-10-19T04:23:36.873Z,96302.45
2018-10-19T04:26:07.506Z,96305.34
2018-10-19T04:28:37.289Z,96306.26
2018-10-19T04:31:07.057Z,96305.86
2018-10-19T04:33:36.852Z,96313.77
2018-10-19T04:36:07.353Z,96308.92
2018-10-19T04:38:37.131Z,96320.33
2018-10-19T04:41:07.379Z,96328.89
2018-10-19T04:43:37.298Z,96329.28
2018-10-19T04:46:07.603Z,96334.05
2018-10-19T04:48:37.359Z,96333.70
2018-10-19T04:51:07.796Z,96331.71
2018-10-19T04:53:37.692Z,96329.16
2018-10-19T04:56:07.697Z,96337.59
2018-10-19T04:58:37.416Z,96341.15
2018-10-19T05:01:07.553Z,96344.48
2018-10-19T05:03:37.293Z,96348.45
2018-10-19T05:06:07.535Z,96347.05
2018-10-19T05:08:37.360Z,96352.26
2018-10-19T05:11:07.269Z,96354.62
2018-10-19T05:13:37.230Z,96356.56
2018-10-19T05:16:07.025Z,96360.33
2018-10-19T05:18:36.788Z,96358.89
2018-10-19T05:21:06.937Z,96364.17
2018-10-19T05:23:36.725Z,96369.73
2018-10-19T05:26:07.099Z,96367.41
2018-10-19T05:28:37.005Z,96361.06
2018-10-19T05:31:06.830Z,96361.78
2018-10-19T05:33:36.611Z,96369.16
2018-10-19T05:36:06.933Z,96367.58
2018-10-19T05:38:36.678Z,96368.77
2018-10-19T05:41:06.584Z,96368.02
2018-10-19T05:43:36.519Z,96363.78
2018-10-19T05:46:06.519Z,96372.17
2018-10-19T05:48:36.492Z,96371.20
2018-10-19T05:51:06.730Z,96379.38
2018-10-19T05:53:36.685Z,96381.48
2018-10-19T05:56:07.673Z,96380.73
2018-10-19T05:58:37.971Z,96381.88
2018-10-19T06:01:07.801Z,96388.44
2018-10-19T06:03:37.585Z,96396.92
2018-10-19T06:06:07.358Z,96398.72
2018-10-19T06:08:37.146Z,96399.50
2018-10-19T06:11:07.365Z,96401.61
2018-10-19T06:13:37.436Z,96409.05
2018-10-19T06:16:07.792Z,96405.73
2018-10-19T06:18:37.565Z,96415.45
2018-10-19T06:21:07.330Z,96420.79
2018-10-19T06:23:37.240Z,96422.37
2018-10-19T06:26:07.334Z,96421.84
2018-10-19T06:28:37.179Z,96421.63
2018-10-19T06:31:06.988Z,96418.16
2018-10-19T06:33:36.798Z,96423.95
2018-10-19T06:36:06.816Z,96432.06
2018-10-19T06:38:36.600Z,96434.09
2018-10-19T06:41:06.824Z,96434.48
2018-10-19T06:43:36.721Z,96438.31
2018-10-19T06:46:07.262Z,96445.55
2018-10-19T06:48:37.145Z,96450.20
2018-10-19T06:51:07.079Z,96449.91
2018-10-19T06:53:37.036Z,96451.05
2018-10-19T06:56:06.826Z,96453.41
2018-10-19T06:58:36.876Z,96457.91
2018-10-19T07:01:06.883Z,96460.50
2018-10-19T07:03:36.666Z,96455.05
2018-10-19T07:06:06.869Z,96463.80
2018-10-19T07:08:36.830Z,96455.98
2018-10-19T07:11:07.067Z,96463.41
2018-10-19T07:13:36.956Z,96472.78
2018-10-19T07:16:06.859Z,96466.70
2018-10-19T07:18:36.706Z,96467.89
2018-10-19T07:21:07.313Z,96476.48
2018-10-19T07:23:37.091Z,96483.70
2018-10-19T07:26:07.975Z,96482.13
2018-10-19T07:28:37.858Z,96480.91
2018-10-19T07:31:07.630Z,96479.83
2018-10-19T07:33:37.430Z,96479.21
2018-10-19T07:36:07.496Z,96482.30
2018-10-19T07:38:37.309Z,96487.22
2018-10-19T07:41:06.909Z,96486.56
2018-10-19T07:43:36.851Z,96497.81
2018-10-19T07:46:06.724Z,96492.85
2018-10-19T07:48:36.586Z,96495.41
2018-10-19T07:51:07.095Z,96506.06
2018-10-19T07:53:36.957Z,96503.17
2018-10-19T07:56:07.658Z,96505.72
2018-10-19T07:58:37.663Z,96507.77
2018-10-19T08:01:07.662Z,96504.28
2018-10-19T08:03:37.597Z,96502.16
2018-10-19T08:06:07.398Z,96507.52
2018-10-19T08:08:37.204Z,96512.50
2018-10-19T08:11:07.807Z,96511.67
2018-10-19T08:13:37.710Z,96515.11
2018-10-19T08:16:07.504Z,96514.03
2018-10-19T08:18:37.295Z,96512.81
2018-10-19T08:21:07.704Z,96509.84
2018-10-19T08:23:37.702Z,96511.12
2018-10-19T08:26:07.598Z,96510.60
2018-10-19T08:28:37.487Z,96510.55
2018-10-19T08:31:07.660Z,96519.97
2018-10-19T08:33:37.431Z,96518.89
2018-10-19T08:36:07.966Z,96522.69
2018-10-19T08:38:37.730Z,96524.58
2018-10-19T08:41:07.585Z,96529.73
2018-10-19T08:43:37.491Z,96531.48
2018-10-19T08:46:12.943Z,96530.39
2018-10-19T08:48:42.698Z,96531.28
2018-10-19T08:51:12.582Z,96536.62
2018-10-19T08:53:42.545Z,96540.49
2018-10-19T08:56:12.499Z,96540.46
2018-10-19T08:58:43.220Z,96543.22
2018-10-19T09:01:13.017Z,96543.22
2018-10-19T09:03:42.794Z,96534.45
2018-10-19T09:06:12.596Z,96538.05
2018-10-19T09:08:42.563Z,96535.60
2018-10-19T09:11:12.603Z,96537.77
2018-10-19T09:13:42.548Z,96536.95
2018-10-19T09:16:12.482Z,96532.38
2018-10-19T09:18:42.288Z,96530.39
2018-10-19T09:21:12.302Z,96526.11
2018-10-19T09:23:42.161Z,96527.98
2018-10-19T09:26:11.925Z,96529.39
2018-10-19T09:28:41.729Z,96522.94
2018-10-19T09:31:11.518Z,96529.56
2018-10-19T09:33:41.304Z,96527.03
2018-10-19T09:36:11.201Z,96525.25
2018-10-19T09:38:41.049Z,96522.21
2018-10-19T09:41:10.832Z,96523.40
2018-10-19T09:43:40.787Z,96525.97
2018-10-19T09:46:10.525Z,96522.25
2018-10-19T09:48:40.288Z,96519.32
2018-10-19T09:51:10.126Z,96525.95
2018-10-19T09:53:40.045Z,96521.09
2018-10-19T09:56:09.863Z,96526.58
2018-10-19T09:58:40.401Z,96528.53
2018-10-19T10:01:15.228Z,96538.09
2018-10-19T10:03:45.195Z,96527.37
2018-10-19T10:06:14.993Z,96528.56
2018-10-19T10:08:44.931Z,96524.42
2018-10-19T10:11:14.746Z,96528.89
2018-10-19T10:13:44.736Z,96523.83
2018-10-19T10:16:14.483Z,96517.02
2018-10-19T10:18:44.264Z,96518.78
2018-10-19T10:21:14.164Z,96523.08
2018-10-19T10:23:44.407Z,96513.69
2018-10-19T10:26:14.668Z,96505.10
2018-10-19T10:28:44.459Z,96506.69
2018-10-19T10:31:14.351Z,96507.67
2018-10-19T10:33:44.208Z,96512.75
2018-10-19T10:36:13.930Z,96512.16
2018-10-19T10:38:43.740Z,96513.53
2018-10-19T10:41:13.640Z,96512.74
2018-10-19T10:43:43.573Z,96519.38
2018-10-19T10:46:13.449Z,96514.90
2018-10-19T10:48:43.280Z,96512.77
2018-10-19T10:51:13.027Z,96503.20
2018-10-19T10:53:42.770Z,96502.03
2018-10-19T10:56:12.552Z,96501.23
2018-10-19T10:58:42.311Z,96501.03
2018-10-19T11:01:12.501Z,96498.30
2018-10-19T11:03:42.243Z,96499.64
2018-10-19T11:06:12.052Z,96496.72
2018-10-19T11:08:41.843Z,96491.66
2018-10-19T11:11:13.305Z,96490.08
2018-10-19T11:13:43.917Z,96484.58
2018-10-19T11:16:14.560Z,96487.31
2018-10-19T11:18:44.440Z,96482.05
2018-10-19T11:21:14.206Z,96475.72
2018-10-19T11:23:44.114Z,96477.25
2018-10-19T11:26:13.897Z,96477.88
2018-10-19T11:28:43.721Z,96479.82
2018-10-19T11:31:13.567Z,96479.20
2018-10-19T11:33:43.466Z,96476.42
2018-10-19T11:36:13.486Z,96476.36
2018-10-19T11:38:43.334Z,96474.89
2018-10-19T11:41:13.091Z,96468.88
2018-10-19T11:43:42.850Z,96471.21
2018-10-19T11:46:12.855Z,96463.67
2018-10-19T11:48:42.660Z,96468.76
2018-10-19T11:51:12.620Z,96465.48
2018-10-19T11:53:42.406Z,96463.58
2018-10-19T11:56:12.198Z,96466.23
2018-10-19T11:58:41.974Z,96470.36
2018-10-19T12:01:11.802Z,96465.27
2018-10-19T12:03:41.781Z,96463.95
2018-10-19T12:06:11.811Z,96467.50
2018-10-19T12:08:41.740Z,96464.02
2018-10-19T12:11:11.593Z,96461.96
2018-10-19T12:13:41.391Z,96456.92
2018-10-19T12:16:11.266Z,96452.03
2018-10-19T12:18:41.284Z,96448.08
2018-10-19T12:21:11.032Z,96456.84
2018-10-19T12:23:40.796Z,96447.05
2018-10-19T12:26:10.770Z,96450.57
2018-10-19T12:28:40.612Z,96442.28
2018-10-19T12:31:10.440Z,96444.30
2018-10-19T12:33:40.396Z,96431.01
2018-10-19T12:36:10.509Z,96434.70
2018-10-19T12:38:40.284Z,96438.12
2018-10-19T12:41:10.300Z,96437.95
2018-10-19T12:43:40.256Z,96434.57
2018-10-19T12:46:29.983Z,96436.98
2018-10-19T12:48:59.905Z,96443.93
2018-10-19T12:51:29.908Z,96436.19
2018-10-19T12:53:59.790Z,96428.38
2018-10-19T12:56:29.682Z,96429.02
2018-10-19T12:58:59.505Z,96426.05
2018-10-19T13:01:30.122Z,96432.23
2018-10-19T13:04:00.452Z,96430.30
2018-10-19T13:06:30.258Z,96432.69
2018-10-19T13:09:00.076Z,96436.81
2018-10-19T13:11:29.877Z,96436.45
2018-10-19T13:13:59.684Z,96425.63
2018-10-19T13:16:29.470Z,96428.70
2018-10-19T13:18:59.270Z,96424.84
2018-10-19T13:21:29.251Z,96418.05
2018-10-19T13:23:59.121Z,96416.93
2018-10-19T13:26:29.076Z,96419.55
2018-10-19T13:28:58.858Z,96418.50
2018-10-19T13:31:28.676Z,96420.23
2018-10-19T13:33:58.678Z,96426.77
2018-10-19T13:36:28.462Z,96420.69
2018-10-19T13:38:58.379Z,96428.95
2018-10-19T13:41:28.393Z,96439.13
2018-10-19T13:43:58.322Z,96434.52
2018-10-19T13:46:28.247Z,96437.27
2018-10-19T13:48:58.005Z,96435.23
2018-10-19T13:51:27.799Z,96427.23
2018-10-19T13:53:57.621Z,96432.00
2018-10-19T13:56:27.423Z,96427.23
2018-10-19T13:58:57.263Z,96436.84
2018-10-19T14:01:27.213Z,96428.11
2018-10-19T14:03:56.994Z,96434.75
2018-10-19T14:06:26.797Z,96419.19
2018-10-19T14:08:56.649Z,96425.91
2018-10-19T14:11:26.598Z,96424.89
2018-10-19T14:13:56.368Z,96429.21
2018-10-19T14:16:26.185Z,96427.73
2018-10-19T14:18:55.993Z,96425.41
2018-10-19T14:21:26.131Z,96425.42
2018-10-19T14:23:55.926Z,96427.28
2018-10-19T14:26:25.666Z,96432.88
2018-10-19T14:28:55.525Z,96426.56
2018-10-19T14:31:25.451Z,96434.16
2018-10-19T14:33:55.223Z,96437.72
2018-10-19T14:36:25.015Z,96445.50
2018-10-19T14:38:54.966Z,96437.88
2018-10-19T14:41:24.923Z,96438.20
2018-10-19T14:43:54.887Z,96437.65
2018-10-19T14:46:24.717Z,96435.62
2018-10-19T14:48:54.536Z,96438.97
2018-10-19T14:51:24.655Z,96439.25
2018-10-19T14:53:54.430Z,96440.98
2018-10-19T14:56:24.287Z,96435.48
2018-10-19T14:58:54.090Z,96433.98
2018-10-19T15:01:24.079Z,96424.81
2018-10-19T15:03:53.871Z,96439.06
2018-10-19T15:06:23.609Z,96436.77
2018-10-19T15:08:53.645Z,96435.53
2018-10-19T15:11:23.907Z,96431.31
2018-10-19T15:13:53.637Z,96434.52
2018-10-19T15:16:23.421Z,96430.78
2018-10-19T15:18:53.207Z,96432.23
2018-10-19T15:21:22.973Z,96430.69
2018-10-19T15:23:52.769Z,96433.11
2018-10-19T15:26:22.812Z,96442.14
2018-10-19T15:28:52.803Z,96434.48
2018-10-19T15:31:22.710Z,96437.95
2018-10-19T15:33:52.531Z,96437.23
2018-10-19T15:36:22.375Z,96431.22
2018-10-19T15:38:52.418Z,96435.08
2018-10-19T15:41:22.323Z,96435.89
2018-10-19T15:43:52.095Z,96435.34
2018-10-19T15:46:21.960Z,96439.42
2018-10-19T15:48:51.957Z,96445.77
2018-10-19T15:51:21.715Z,96440.62
2018-10-19T15:53:51.739Z,96447.63
2018-10-19T15:56:21.561Z,96446.92
2018-10-19T15:58:51.362Z,96449.44
2018-10-19T16:01:21.189Z,96453.78
2018-10-19T16:03:51.043Z,96456.19
2018-10-19T16:06:20.849Z,96457.41
2018-10-19T16:08:50.638Z,96451.58
2018-10-19T16:11:20.439Z,96454.35
2018-10-19T16:13:50.183Z,96457.52
2018-10-19T16:16:20.007Z,96472.28
2018-10-19T16:18:49.807Z,96476.05
2018-10-19T16:21:19.573Z,96469.45
2018-10-19T16:23:49.332Z,96477.94
2018-10-19T16:26:19.151Z,96477.42
2018-10-19T16:28:48.965Z,96482.38
2018-10-19T16:31:18.765Z,96484.77
2018-10-19T16:33:48.543Z,96485.20
2018-10-19T16:36:18.374Z,96487.95
2018-10-19T16:38:48.228Z,96496.06
2018-10-19T16:41:18.057Z,96501.48
2018-10-19T16:43:47.913Z,96501.77
2018-10-19T16:46:18.098Z,96513.14
2018-10-19T16:48:48.113Z,96513.59
2018-10-19T16:51:17.931Z,96521.64
2018-10-19T16:53:47.764Z,96522.27
2018-10-19T16:56:17.839Z,96527.77
2018-10-19T16:58:47.594Z,96525.61
2018-10-19T17:01:17.407Z,96519.52
2018-10-19T17:03:47.217Z,96518.36
2018-10-19T17:06:17.146Z,96520.55
2018-10-19T17:08:48.763Z,96518.97
2018-10-19T17:11:18.624Z,96519.52
2018-10-19T17:13:48.432Z,96523.42
2018-10-19T17:16:18.320Z,96524.04
2018-10-19T17:18:48.088Z,96536.00
2018-10-19T17:21:18.064Z,96537.17
2018-10-19T17:23:47.953Z,96530.36
2018-10-19T17:26:17.900Z,96536.39
2018-10-19T17:28:47.677Z,96539.53
2018-10-19T17:31:17.558Z,96539.33
2018-10-19T17:33:47.677Z,96551.45
2018-10-19T17:36:17.335Z,96552.22
2018-10-19T17:38:47.121Z,96550.26
2018-10-19T17:41:16.907Z,96564.13
2018-10-19T17:43:46.696Z,96557.67
2018-10-19T17:46:16.821Z,96568.03
2018-10-19T17:48:46.630Z,96565.48
2018-10-19T17:51:16.567Z,96565.88
2018-10-19T17:53:46.490Z,96571.53
2018-10-19T17:56:16.505Z,96573.30
2018-10-19T17:58:46.269Z,96570.17
2018-10-19T18:01:16.395Z,96569.39
2018-10-19T18:03:46.181Z,96573.47
2018-10-19T18:06:16.123Z,96578.73
2018-10-19T18:08:46.117Z,96576.04
2018-10-19T18:11:15.956Z,96581.11
2018-10-19T18:13:45.892Z,96585.53
2018-10-19T18:16:15.643Z,96585.50
2018-10-19T18:18:45.470Z,96588.79
2018-10-19T18:21:15.271Z,96592.85
2018-10-19T18:23:45.263Z,96596.53
2018-10-19T18:26:15.461Z,96606.85
2018-10-19T18:28:45.398Z,96605.67
2018-10-19T18:31:15.214Z,96609.56
2018-10-19T18:33:45.027Z,96610.32
2018-10-19T18:36:14.824Z,96610.30
2018-10-19T18:38:44.686Z,96616.15
2018-10-19T18:41:14.859Z,96613.58
2018-10-19T18:43:44.747Z,96616.70
2018-10-19T18:46:14.553Z,96615.33
2018-10-19T18:48:44.448Z,96621.19
2018-10-19T18:51:14.280Z,96617.48
2018-10-19T18:53:44.094Z,96626.83
2018-10-19T18:56:13.892Z,96622.09
2018-10-19T19:09:28.928Z,96640.35
2018-10-19T19:11:58.784Z,96638.80
2018-10-19T19:14:28.650Z,96645.92
2018-10-19T19:16:58.737Z,96647.60
2018-10-19T19:19:28.632Z,96652.53
2018-10-19T19:21:58.442Z,96659.38
2018-10-19T19:24:33.421Z,96655.56
2018-10-19T19:27:03.584Z,96663.31
2018-10-19T19:29:33.484Z,96666.75
2018-10-19T19:32:03.394Z,96667.67
2018-10-19T19:34:34.234Z,96669.26
2018-10-19T19:37:04.070Z,96664.55
2018-10-19T19:39:33.886Z,96675.77
2018-10-19T19:43:33.071Z,96676.56
2018-10-19T19:46:02.895Z,96676.34
2018-10-19T19:48:37.897Z,96676.39
2018-10-19T19:51:07.743Z,96676.78
2018-10-19T19:53:37.535Z,96677.63
2018-10-19T19:56:07.758Z,96676.09
2018-10-19T19:58:37.859Z,96676.08
2018-10-19T20:01:08.855Z,96679.72
2018-10-19T20:03:38.970Z,96678.36
2018-10-19T20:06:09.100Z,96685.75
2018-10-19T20:08:39.121Z,96688.27
2018-10-19T20:11:09.406Z,96688.53
2018-10-19T20:13:39.417Z,96690.63
2018-10-19T20:16:09.192Z,96690.72
2018-10-19T20:18:38.949Z,96691.19
2018-10-19T20:21:09.207Z,96700.16
2018-10-19T20:23:39.110Z,96708.68
2018-10-19T20:26:09.228Z,96701.86
2018-10-19T20:28:39.592Z,96707.03
2018-10-19T20:31:09.664Z,96701.98
2018-10-19T20:35:09.682Z,96704.98
2018-10-19T20:37:39.809Z,96701.80
2018-10-19T20:40:09.663Z,96706.08
2018-10-19T20:42:39.479Z,96706.74
2018-10-19T20:45:09.387Z,96712.70
2018-10-19T20:47:39.351Z,96713.84
2018-10-19T20:50:10.833Z,96715.87
2018-10-19T20:52:40.989Z,96722.94
2018-10-19T20:55:11.102Z,96721.74
2018-10-19T20:57:40.924Z,96720.73
2018-10-19T21:00:11.472Z,96720.16
2018-10-19T21:02:41.329Z,96705.84
2018-10-19T21:05:12.298Z,96713.68
2018-10-19T21:07:42.469Z,96715.20
2018-10-19T21:10:13.650Z,96720.68
2018-10-19T21:12:43.449Z,96722.16
2018-10-19T21:15:14.462Z,96720.68
2018-10-19T21:17:44.239Z,96721.30
2018-10-19T21:20:14.153Z,96719.48
2018-10-19T21:22:44.226Z,96718.91
2018-10-19T21:25:14.057Z,96724.00
2018-10-19T21:27:43.819Z,96726.97
2018-10-19T21:30:14.012Z,96725.91
2018-10-19T21:32:43.948Z,96724.49
2018-10-19T21:35:14.165Z,96728.85
2018-10-19T21:37:44.524Z,96730.78
2018-10-19T21:40:14.430Z,96730.67
2018-10-19T21:42:44.624Z,96731.71
2018-10-19T21:45:14.564Z,96732.96
2018-10-19T21:47:44.444Z,96731.81
2018-10-19T21:50:14.469Z,96727.52
2018-10-19T21:52:44.518Z,96733.91
2018-10-19T21:55:14.456Z,96725.24
2018-10-19T21:57:44.568Z,96725.88
2018-10-19T22:00:14.568Z,96727.33
2018-10-19T22:02:44.644Z,96726.23
2018-10-19T22:05:14.644Z,96735.66
2018-10-19T22:07:44.776Z,96739.25
2018-10-19T22:10:15.034Z,96741.36
2018-10-19T22:12:45.004Z,96745.25
2018-10-19T22:15:15.931Z,96740.59
2018-10-19T22:17:46.430Z,96742.25
2018-10-19T22:20:16.412Z,96747.95
2018-10-19T22:22:46.497Z,96747.73
2018-10-19T22:25:17.019Z,96749.98
2018-10-19T22:27:47.078Z,96756.39
2018-10-19T22:30:17.034Z,96754.43
2018-10-19T22:32:46.934Z,96755.84
2018-10-19T22:35:17.307Z,96754.61
2018-10-19T22:37:47.308Z,96755.58
2018-10-19T22:40:17.202Z,96760.77
2018-10-19T22:42:47.071Z,96769.83
2018-10-19T22:45:16.985Z,96766.21
2018-10-19T22:48:40.910Z,96763.49
2018-10-19T22:51:10.829Z,96768.87
2018-10-19T22:53:41.169Z,96765.36
2018-10-19T22:56:11.049Z,96768.48
2018-10-19T22:58:41.038Z,96766.20
2018-10-19T23:01:11.154Z,96769.68
2018-10-19T23:03:41.307Z,96771.16
2018-10-19T23:06:12.616Z,96770.88
2018-10-19T23:08:42.772Z,96765.34
2018-10-19T23:11:13.460Z,96764.73
2018-10-19T23:13:43.526Z,96765.08
2018-10-19T23:16:13.434Z,96765.23
2018-10-19T23:18:43.555Z,96774.31
2018-10-19T23:21:13.678Z,96773.69
2018-10-19T23:23:43.504Z,96775.01
2018-10-19T23:26:14.254Z,96772.61
2018-10-19T23:28:44.248Z,96774.44
2018-10-19T23:31:14.244Z,96778.00
2018-10-19T23:33:44.200Z,96773.80
2018-10-19T23:36:14.071Z,96774.55
2018-10-19T23:38:44.190Z,96767.27
2018-10-19T23:41:14.442Z,96768.80
2018-10-19T23:43:44.639Z,96768.84
2018-10-19T23:46:14.808Z,96773.39
2018-10-19T23:48:44.692Z,96780.78
2018-10-19T23:51:14.710Z,96778.08
2018-10-19T23:53:44.624Z,96778.81
2018-10-19T23:56:14.504Z,96778.81
2018-10-19T23:58:44.425Z,96779.95
